createdAt,value
2018-12-12T00:00:33.336Z,2.60
2018-12-12T00:03:04.283Z,2.70
2018-12-12T00:05:35.178Z,3.93
2018-12-12T00:08:06.172Z,2.67
2018-12-12T00:10:37.234Z,3.17
2018-12-12T00:13:07.321Z,8.40
2018-12-12T00:18:37.484Z,2.60
2018-12-12T00:21:09.399Z,9.30
2018-12-12T00:23:45.279Z,13.50
2018-12-12T00:26:16.425Z,4.00
2018-12-12T00:28:47.630Z,3.87
2018-12-12T00:31:18.078Z,4.23
2018-12-12T00:33:48.557Z,5.53
2018-12-12T00:36:19.021Z,3.50
2018-12-12T00:38:49.577Z,3.17
2018-12-12T00:41:20.268Z,2.50
2018-12-12T00:43:50.714Z,2.57
2018-12-12T00:46:21.283Z,3.10
2018-12-12T00:48:51.461Z,2.70
2018-12-12T00:51:25.297Z,4.23
2018-12-12T00:53:57.429Z,3.23
2018-12-12T00:56:35.337Z,3.07
2018-12-12T00:59:06.509Z,2.77
2018-12-12T01:01:36.516Z,2.73
2018-12-12T01:04:07.557Z,2.63
2018-12-12T01:06:38.510Z,2.50
2018-12-12T01:09:09.197Z,10.53
2018-12-12T01:11:44.616Z,3.53
2018-12-12T01:14:16.523Z,5.07
2018-12-12T01:16:46.559Z,3.47
2018-12-12T01:19:18.087Z,2.47
2018-12-12T01:21:48.769Z,7.90
2018-12-12T01:24:19.505Z,4.10
2018-12-12T01:26:49.664Z,7.93
2018-12-12T01:29:26.425Z,8.93
2018-12-12T01:31:57.667Z,6.90
2018-12-12T01:34:28.711Z,4.27
2018-12-12T01:37:01.936Z,2.97
2018-12-12T01:39:32.634Z,3.73
2018-12-12T01:42:03.656Z,3.40
2018-12-12T01:44:38.500Z,4.50
2018-12-12T01:47:09.572Z,2.10
2018-12-12T01:49:41.346Z,2.13
2018-12-12T01:52:13.936Z,2.60
2018-12-12T01:54:46.196Z,2.33
2018-12-12T01:57:18.146Z,2.43
2018-12-12T01:59:48.707Z,4.20
2018-12-12T02:02:18.757Z,2.40
2018-12-12T02:04:48.766Z,2.20
2018-12-12T02:07:20.085Z,4.77
2018-12-12T02:09:51.719Z,2.53
2018-12-12T02:12:21.794Z,1.83
2018-12-12T02:14:57.268Z,2.60
2018-12-12T02:17:28.886Z,3.50
2018-12-12T02:19:58.947Z,3.30
2018-12-12T02:22:29.838Z,2.67
2018-12-12T02:25:00.806Z,2.50
2018-12-12T02:27:31.698Z,2.43
2018-12-12T02:30:02.189Z,2.10
2018-12-12T02:32:33.034Z,2.40
2018-12-12T02:35:03.813Z,1.80
2018-12-12T02:37:35.198Z,1.80
2018-12-12T02:40:05.932Z,3.37
2018-12-12T02:42:35.993Z,2.13
2018-12-12T02:45:07.014Z,2.57
2018-12-12T02:47:37.029Z,1.77
2018-12-12T02:50:08.064Z,2.30
2018-12-12T02:52:38.498Z,1.63
2018-12-12T02:55:09.093Z,1.57
2018-12-12T02:57:39.619Z,4.53
2018-12-12T03:00:10.587Z,1.67
2018-12-12T03:02:41.478Z,1.73
2018-12-12T03:05:11.472Z,4.33
2018-12-12T03:07:42.054Z,4.40
2018-12-12T03:10:12.561Z,2.20
2018-12-12T03:12:42.613Z,2.03
2018-12-12T03:15:13.791Z,2.10
2018-12-12T03:17:44.329Z,1.80
2018-12-12T03:20:14.950Z,1.60
2018-12-12T03:22:45.416Z,3.77
2018-12-12T03:25:16.262Z,1.73
2018-12-12T03:27:46.940Z,2.17
2018-12-12T03:30:17.200Z,1.90
2018-12-12T03:32:51.039Z,2.10
2018-12-12T03:35:22.116Z,2.57
2018-12-12T03:37:52.112Z,2.10
2018-12-12T03:40:23.700Z,2.37
2018-12-12T03:42:54.689Z,1.50
2018-12-12T03:45:25.221Z,1.80
2018-12-12T03:47:56.092Z,1.70
2018-12-12T03:50:26.398Z,1.70
2018-12-12T03:52:57.808Z,3.57
2018-12-12T03:55:28.228Z,2.40
2018-12-12T03:58:01.256Z,1.60
2018-12-12T04:00:32.249Z,1.80
2018-12-12T04:03:02.277Z,1.80
2018-12-12T04:05:33.430Z,1.87
2018-12-12T04:08:04.333Z,1.80
2018-12-12T04:10:37.348Z,1.60
2018-12-12T04:13:11.032Z,2.43
2018-12-12T04:15:41.503Z,1.97
2018-12-12T04:18:12.424Z,6.97
2018-12-12T04:20:52.244Z,2.00
2018-12-12T04:23:28.052Z,3.07
2018-12-12T04:26:09.298Z,2.00
2018-12-12T04:28:55.207Z,1.60
2018-12-12T04:31:43.095Z,1.50
2018-12-12T04:34:29.183Z,1.20
2018-12-12T04:40:28.546Z,6.03
2018-12-12T04:43:13.792Z,5.07
2018-12-12T04:46:05.138Z,3.97
2018-12-12T04:48:41.075Z,1.80
2018-12-12T04:51:25.250Z,1.83
2018-12-12T04:54:11.055Z,1.50
2018-12-12T04:56:55.008Z,1.17
2018-12-12T04:59:32.375Z,1.47
2018-12-12T05:02:04.405Z,3.37
2018-12-12T05:04:39.632Z,3.47
2018-12-12T05:07:22.760Z,1.53
2018-12-12T05:10:06.457Z,2.40
2018-12-12T05:12:54.780Z,1.50
2018-12-12T05:15:36.426Z,2.33
2018-12-12T05:18:24.507Z,1.63
2018-12-12T05:20:55.647Z,2.13
2018-12-12T05:23:26.638Z,2.33
2018-12-12T05:25:58.988Z,5.20
2018-12-12T05:28:30.813Z,3.57
2018-12-12T05:31:04.580Z,2.50
2018-12-12T05:33:34.653Z,3.33
2018-12-12T05:36:05.924Z,2.70
2018-12-12T05:38:36.555Z,3.13
2018-12-12T05:41:06.566Z,1.33
2018-12-12T05:43:37.603Z,1.50
2018-12-12T05:46:11.406Z,1.27
2018-12-12T05:48:41.904Z,3.63
2018-12-12T05:51:12.743Z,2.40
2018-12-12T05:53:42.749Z,1.73
2018-12-12T05:56:14.733Z,1.67
2018-12-12T05:58:45.778Z,1.77
2018-12-12T06:01:18.791Z,2.00
2018-12-12T06:03:49.813Z,2.30
2018-12-12T06:06:26.825Z,1.73
2018-12-12T06:08:56.897Z,1.90
2018-12-12T06:11:27.852Z,1.40
2018-12-12T06:13:58.682Z,1.47
2018-12-12T06:16:28.809Z,1.60
2018-12-12T06:19:02.637Z,1.40
2018-12-12T06:21:32.904Z,1.60
2018-12-12T06:24:06.685Z,2.20
2018-12-12T06:26:37.523Z,2.40
2018-12-12T06:29:07.977Z,2.37
2018-12-12T06:31:38.841Z,1.87
2018-12-12T06:34:08.893Z,5.67
2018-12-12T06:36:39.984Z,3.03
2018-12-12T06:39:15.763Z,5.07
2018-12-12T06:41:46.132Z,6.30
2018-12-12T06:44:17.859Z,2.90
2018-12-12T06:46:49.070Z,1.90
2018-12-12T06:49:19.087Z,1.80
2018-12-12T06:51:49.106Z,2.00
2018-12-12T06:54:23.471Z,0.70
2018-12-12T06:56:55.080Z,0.97
2018-12-12T06:59:25.085Z,1.77
2018-12-12T07:01:55.130Z,4.10
2018-12-12T07:04:26.042Z,1.20
2018-12-12T07:06:57.740Z,1.77
2018-12-12T07:09:28.121Z,1.10
2018-12-12T07:12:01.000Z,1.60
2018-12-12T07:14:32.089Z,1.03
2018-12-12T07:17:03.307Z,0.90
2018-12-12T07:19:36.952Z,1.53
2018-12-12T07:22:07.100Z,0.60
2018-12-12T07:24:40.992Z,0.80
2018-12-12T07:27:11.337Z,0.70
2018-12-12T07:29:42.325Z,1.00
2018-12-12T07:32:15.986Z,0.97
2018-12-12T07:34:46.065Z,10.40
2018-12-12T07:37:17.127Z,5.60
2018-12-12T07:39:53.418Z,3.60
2018-12-12T07:42:27.146Z,2.57
2018-12-12T07:44:58.245Z,6.70
2018-12-12T07:47:31.212Z,2.67
2018-12-12T07:50:02.172Z,1.93
2018-12-12T07:52:33.305Z,1.80
2018-12-12T07:55:06.402Z,2.70
2018-12-12T07:57:37.353Z,2.63
2018-12-12T08:00:11.197Z,1.30
2018-12-12T08:02:41.865Z,2.07
2018-12-12T08:05:13.388Z,1.47
2018-12-12T08:07:49.586Z,2.10
2018-12-12T08:10:23.841Z,1.80
2018-12-12T08:13:00.505Z,4.50
2018-12-12T08:15:39.088Z,3.47
2018-12-12T08:18:11.166Z,7.73
2018-12-12T08:20:42.244Z,3.83
2018-12-12T08:23:14.635Z,3.23
2018-12-12T08:25:51.045Z,11.73
2018-12-12T08:28:26.508Z,9.10
2018-12-12T08:31:03.884Z,7.70
2018-12-12T08:33:38.403Z,7.07
2018-12-12T08:36:09.181Z,8.73
2018-12-12T08:38:45.246Z,6.97
2018-12-12T08:41:24.379Z,8.73
2018-12-12T08:44:01.351Z,7.17
2018-12-12T08:46:33.057Z,7.20
2018-12-12T08:49:09.925Z,9.60
2018-12-12T08:51:43.091Z,10.53
2018-12-12T08:54:18.820Z,13.97
2018-12-12T08:56:52.595Z,13.87
2018-12-12T08:59:27.640Z,13.97
2018-12-12T09:02:00.482Z,7.17
2018-12-12T09:04:40.068Z,6.83
2018-12-12T09:07:10.667Z,4.43
2018-12-12T09:09:42.648Z,4.37
2018-12-12T09:12:16.580Z,5.40
2018-12-12T09:14:48.490Z,3.27
2018-12-12T09:17:18.617Z,3.90
2018-12-12T09:19:48.685Z,3.93
2018-12-12T09:22:20.673Z,4.70
2018-12-12T09:27:51.533Z,2.77
2018-12-12T09:30:22.749Z,3.40
2018-12-12T09:32:53.473Z,5.20
2018-12-12T09:35:24.721Z,1.60
2018-12-12T09:37:54.741Z,7.83
2018-12-12T09:40:28.612Z,2.60
2018-12-12T09:42:59.774Z,3.80
2018-12-12T09:45:29.786Z,4.43
2018-12-12T09:48:00.780Z,3.70
2018-12-12T09:50:30.924Z,2.83
2018-12-12T09:53:09.696Z,4.50
2018-12-12T09:55:41.905Z,3.87
2018-12-12T09:58:17.587Z,2.13
2018-12-12T10:00:48.898Z,1.90
2018-12-12T10:03:22.701Z,2.00
2018-12-12T10:05:52.987Z,3.47
2018-12-12T10:08:27.921Z,11.30
2018-12-12T10:11:01.649Z,6.30
2018-12-12T10:13:31.899Z,6.13
2018-12-12T10:16:04.983Z,10.50
2018-12-12T10:18:36.516Z,4.23
2018-12-12T10:21:10.088Z,6.20
2018-12-12T10:23:42.305Z,3.30
2018-12-12T10:26:13.328Z,4.67
2018-12-12T10:28:43.828Z,3.00
2018-12-12T10:31:14.393Z,2.50
2018-12-12T10:33:49.070Z,14.63
2018-12-12T10:36:23.218Z,4.17
2018-12-12T10:38:56.257Z,5.30
2018-12-12T10:41:27.750Z,6.60
2018-12-12T10:44:00.995Z,5.00
2018-12-12T10:46:31.122Z,10.10
2018-12-12T10:49:02.112Z,7.93
2018-12-12T10:51:37.798Z,8.90
2018-12-12T10:54:09.150Z,8.43
2018-12-12T10:56:45.200Z,6.37
2018-12-12T10:59:16.111Z,5.87
2018-12-12T11:01:48.510Z,5.50
2018-12-12T11:04:20.363Z,5.50
2018-12-12T11:06:51.166Z,6.50
2018-12-12T11:09:25.005Z,6.70
2018-12-12T11:11:56.853Z,7.50
2018-12-12T11:14:28.405Z,4.40
2018-12-12T11:17:01.945Z,5.00
2018-12-12T11:19:33.107Z,5.40
2018-12-12T11:22:04.145Z,2.90
2018-12-12T11:24:35.175Z,3.20
2018-12-12T11:27:05.270Z,3.20
2018-12-12T11:29:36.206Z,2.97
2018-12-12T11:32:07.160Z,4.47
2018-12-12T11:34:37.200Z,2.80
2018-12-12T11:37:08.347Z,2.13
2018-12-12T11:39:39.252Z,2.50
2018-12-12T11:42:13.131Z,2.90
2018-12-12T11:47:44.868Z,2.47
2018-12-12T11:50:15.300Z,2.77
2018-12-12T11:52:49.162Z,3.97
2018-12-12T11:55:19.488Z,1.67
2018-12-12T11:57:53.151Z,1.83
2018-12-12T12:00:23.311Z,2.63
2018-12-12T12:02:54.233Z,3.13
2018-12-12T12:05:25.367Z,2.50
2018-12-12T12:08:04.364Z,5.20
2018-12-12T12:10:34.560Z,2.97
2018-12-12T12:13:09.548Z,4.83
2018-12-12T12:15:42.513Z,4.20
2018-12-12T12:18:13.471Z,4.03
2018-12-12T12:20:43.505Z,2.53
2018-12-12T12:23:14.369Z,3.27
2018-12-12T12:25:46.428Z,2.07
2018-12-12T12:28:18.491Z,2.80
2018-12-12T12:30:49.546Z,2.50
2018-12-12T12:33:21.250Z,3.30
2018-12-12T12:35:52.668Z,4.83
2018-12-12T12:38:27.625Z,9.23
2018-12-12T12:41:01.453Z,3.53
2018-12-12T12:43:32.444Z,3.00
2018-12-12T12:46:06.421Z,4.43
2018-12-12T12:48:37.705Z,3.57
2018-12-12T12:51:08.753Z,4.10
2018-12-12T12:53:41.651Z,4.67
2018-12-12T12:59:15.585Z,8.93
2018-12-12T13:01:46.899Z,3.23
2018-12-12T13:04:19.687Z,3.50
2018-12-12T13:06:50.183Z,4.90
2018-12-12T13:09:21.500Z,2.53
2018-12-12T13:11:51.994Z,2.93
2018-12-12T13:14:22.776Z,2.73
2018-12-12T13:16:52.779Z,2.57
2018-12-12T13:19:23.880Z,2.50
2018-12-12T13:21:54.625Z,3.13
2018-12-12T13:24:24.731Z,2.47
2018-12-12T13:26:55.743Z,3.80
2018-12-12T13:29:35.581Z,4.47
2018-12-12T13:32:06.646Z,7.73
2018-12-12T13:34:36.845Z,7.27
2018-12-12T13:37:07.733Z,13.33
2018-12-12T13:39:38.808Z,18.57
2018-12-12T13:42:11.948Z,20.10
2018-12-12T13:44:43.006Z,15.77
2018-12-12T13:47:17.263Z,15.30
2018-12-12T13:49:46.865Z,9.67
2018-12-12T13:52:21.652Z,8.53
2018-12-12T13:54:53.940Z,5.07
2018-12-12T13:57:25.945Z,4.97
2018-12-12T13:59:57.093Z,6.60
2018-12-12T14:02:28.044Z,6.07
2018-12-12T14:04:58.886Z,9.23
2018-12-12T14:07:28.961Z,13.03
2018-12-12T14:09:59.312Z,5.67
2018-12-12T14:12:29.994Z,4.80
2018-12-12T14:15:03.896Z,4.30
2018-12-12T14:17:33.940Z,6.07
2018-12-12T14:20:05.467Z,7.03
2018-12-12T14:22:39.354Z,8.83
2018-12-12T14:25:11.913Z,13.90
2018-12-12T14:27:42.460Z,18.50
2018-12-12T14:30:12.984Z,18.13
2018-12-12T14:32:43.103Z,15.07
2018-12-12T14:35:19.901Z,9.10
2018-12-12T14:37:51.482Z,7.97
2018-12-12T14:40:23.985Z,8.77
2018-12-12T14:42:55.101Z,6.23
2018-12-12T14:45:26.029Z,7.27
2018-12-12T15:45:06.277Z,29.37
2018-12-12T15:50:35.679Z,16.20
2018-12-12T15:53:11.231Z,20.37
2018-12-12T15:55:42.364Z,25.03
2018-12-12T15:58:13.348Z,20.80
2018-12-12T16:00:43.425Z,20.37
2018-12-12T16:03:16.845Z,23.17
2018-12-12T16:05:49.420Z,17.93
2018-12-12T16:08:23.247Z,31.93
2018-12-12T16:10:54.257Z,52.67
2018-12-12T16:13:24.688Z,77.70
2018-12-12T16:15:55.418Z,44.70
2018-12-12T16:18:25.474Z,33.77
2018-12-12T16:20:55.534Z,22.47
2018-12-12T16:23:25.576Z,18.70
2018-12-12T16:25:57.952Z,23.03
2018-12-12T16:28:28.293Z,28.40
2018-12-12T16:30:58.425Z,25.87
2018-12-12T16:33:29.366Z,28.47
2018-12-12T16:36:00.030Z,26.80
2018-12-12T16:38:30.789Z,27.30
2018-12-12T16:41:00.848Z,30.10
2018-12-12T16:43:31.444Z,24.50
2018-12-12T16:46:01.489Z,26.40
2018-12-12T16:48:37.902Z,22.13
2018-12-12T16:51:08.509Z,24.33
2018-12-12T16:53:40.178Z,29.13
2018-12-12T16:56:10.832Z,29.70
2018-12-12T16:58:40.929Z,23.33
2018-12-12T17:01:17.905Z,20.63
2018-12-12T17:03:51.080Z,15.37
2018-12-12T17:06:25.521Z,18.83
2018-12-12T17:08:55.600Z,24.10
2018-12-12T17:11:26.687Z,17.90
2018-12-12T17:13:56.719Z,22.27
2018-12-12T17:16:30.517Z,31.93
2018-12-12T17:19:00.594Z,30.30
2018-12-12T17:21:31.737Z,23.87
2018-12-12T17:24:05.676Z,26.10
2018-12-12T17:26:36.774Z,22.37
2018-12-12T17:29:12.523Z,18.07
2018-12-12T17:31:43.367Z,20.40
2018-12-12T17:34:14.385Z,14.33
2018-12-12T17:36:57.631Z,15.90
2018-12-12T17:39:27.752Z,16.50
2018-12-12T17:41:57.793Z,22.20
2018-12-12T17:44:34.518Z,23.13
2018-12-12T17:47:18.570Z,18.50
2018-12-12T17:49:52.075Z,15.70
2018-12-12T17:52:23.751Z,13.73
2018-12-12T17:54:56.932Z,12.67
2018-12-12T17:57:27.875Z,15.37
2018-12-12T18:00:00.862Z,16.53
2018-12-12T18:02:36.941Z,14.13
2018-12-12T18:05:15.258Z,18.83
2018-12-12T18:07:43.856Z,12.33
2018-12-12T18:10:15.878Z,18.43
2018-12-12T18:12:46.955Z,15.67
2018-12-12T18:15:17.118Z,15.83
2018-12-12T18:17:56.017Z,17.30
2018-12-12T18:20:30.002Z,13.33
2018-12-12T18:23:07.255Z,13.90
2018-12-12T18:25:37.925Z,16.03
2018-12-12T18:28:08.032Z,11.30
2018-12-12T18:30:49.825Z,13.93
2018-12-12T18:33:27.554Z,17.63
2018-12-12T18:36:00.702Z,20.50
2018-12-12T18:38:32.277Z,46.90
2018-12-12T18:41:06.002Z,49.33
2018-12-12T18:43:42.854Z,49.20
2018-12-12T18:48:40.064Z,40.57
2018-12-12T18:51:10.208Z,29.17
2018-12-12T18:53:51.939Z,19.37
2018-12-12T18:56:23.113Z,20.60
2018-12-12T18:58:59.468Z,25.90
2018-12-12T19:01:33.952Z,24.93
2018-12-12T19:04:06.964Z,20.00
2018-12-12T19:06:37.398Z,14.87
2018-12-12T19:09:08.461Z,18.77
2018-12-12T19:11:44.342Z,11.77
2018-12-12T19:14:27.226Z,105.80
2018-12-12T19:16:58.358Z,51.50
2018-12-12T19:19:31.286Z,15.20
2018-12-12T19:22:08.605Z,26.33
2018-12-12T19:24:50.321Z,21.33
2018-12-12T19:27:21.482Z,16.40
2018-12-12T19:30:02.131Z,16.57
2018-12-12T19:32:42.032Z,5.30
2018-12-12T19:35:12.569Z,5.60
2018-12-12T19:37:50.616Z,5.73
2018-12-12T19:40:27.476Z,4.57
2018-12-12T19:43:01.537Z,7.30
2018-12-12T19:45:31.958Z,10.33
2018-12-12T19:48:02.647Z,8.73
2018-12-12T19:59:38.509Z,7.40
2018-12-12T20:02:09.669Z,10.30
2018-12-12T20:04:48.365Z,10.63
2018-12-12T20:07:26.048Z,10.30
2018-12-12T20:09:57.057Z,8.37
2018-12-12T20:12:29.821Z,7.90
2018-12-12T20:15:10.545Z,6.60
2018-12-12T20:17:46.464Z,8.77
2018-12-12T20:20:16.968Z,8.47
2018-12-12T20:22:47.697Z,8.07
2018-12-12T20:25:23.462Z,8.13
2018-12-12T20:27:53.540Z,9.77
2018-12-12T20:30:25.053Z,7.67
2018-12-12T20:32:59.119Z,9.37
2018-12-12T20:35:34.708Z,7.47
2018-12-12T20:38:14.483Z,13.50
2018-12-12T20:40:44.523Z,9.30
2018-12-12T20:43:15.710Z,12.63
2018-12-12T20:45:46.392Z,9.00
2018-12-12T20:48:16.577Z,9.37
2018-12-12T20:50:53.661Z,9.80
2018-12-12T20:53:24.627Z,9.00
2018-12-12T20:55:54.683Z,11.97
2018-12-12T20:58:25.625Z,9.20
2018-12-12T21:00:56.817Z,8.77
2018-12-12T21:03:27.816Z,8.17
2018-12-12T21:06:05.451Z,9.20
2018-12-12T21:08:38.419Z,8.70
2018-12-12T21:11:08.921Z,10.23
2018-12-12T21:13:39.653Z,10.50
2018-12-12T21:16:10.485Z,6.03
2018-12-12T21:18:41.017Z,7.97
2018-12-12T21:21:11.634Z,10.63
2018-12-12T21:23:42.177Z,5.90
2018-12-12T21:26:13.125Z,8.43
2018-12-12T21:28:43.150Z,9.20
2018-12-12T21:31:13.872Z,9.50
2018-12-12T21:33:43.992Z,10.43
2018-12-12T21:36:14.855Z,9.50
2018-12-12T21:38:45.739Z,8.93
2018-12-12T21:41:16.477Z,11.63
2018-12-12T21:43:47.081Z,11.37
2018-12-12T21:46:17.662Z,10.20
2018-12-12T21:48:48.328Z,10.40
2018-12-12T21:51:18.844Z,7.33
2018-12-12T21:53:49.557Z,8.23
2018-12-12T21:56:20.077Z,7.90
2018-12-12T22:01:58.022Z,9.73
2018-12-12T22:04:39.734Z,7.93
2018-12-12T22:07:10.984Z,7.33
2018-12-12T22:09:41.908Z,9.30
2018-12-12T22:12:20.814Z,10.87
2018-12-12T22:15:01.631Z,9.87
2018-12-12T22:17:38.360Z,9.27
2018-12-12T22:20:17.045Z,14.63
2018-12-12T22:22:58.015Z,10.57
2018-12-12T22:25:28.986Z,9.07
2018-12-12T22:28:00.115Z,9.80
2018-12-12T22:30:35.999Z,10.70
2018-12-12T22:33:07.142Z,9.00
2018-12-12T22:35:37.273Z,7.90
2018-12-12T22:38:07.964Z,11.37
2018-12-12T22:40:38.074Z,6.30
2018-12-12T22:43:09.000Z,10.87
2018-12-12T22:45:45.033Z,9.10
2018-12-12T22:48:20.538Z,10.50
2018-12-12T22:50:49.916Z,11.70
2018-12-12T22:53:20.014Z,14.10
2018-12-12T22:55:50.161Z,15.97
2018-12-12T22:58:27.878Z,17.17
2018-12-12T23:01:02.428Z,18.03
2018-12-12T23:03:35.484Z,12.43
2018-12-12T23:06:08.203Z,18.83
2018-12-12T23:08:49.141Z,16.63
2018-12-12T23:11:22.207Z,20.03
2018-12-12T23:13:58.736Z,17.40
2018-12-12T23:16:36.393Z,22.90
2018-12-12T23:19:15.191Z,15.90
2018-12-12T23:21:54.928Z,19.50
2018-12-12T23:24:33.713Z,19.27
2018-12-12T23:27:14.425Z,19.60
2018-12-12T23:29:50.143Z,21.50
2018-12-12T23:32:22.310Z,19.70
2018-12-12T23:34:53.292Z,22.40
2018-12-12T23:37:30.973Z,20.00
2018-12-12T23:40:03.327Z,19.10
2018-12-12T23:42:34.090Z,20.73
2018-12-12T23:45:04.737Z,20.47
2018-12-12T23:47:35.344Z,18.23
2018-12-12T23:50:06.000Z,14.10
2018-12-12T23:52:36.888Z,16.40
2018-12-12T23:55:07.217Z,20.43
2018-12-12T23:57:37.569Z,20.77
